createdAt,value
2023-03-07T00:00:40.469Z,3.60
2023-03-07T00:03:08.642Z,3.60
2023-03-07T00:05:36.808Z,3.60
2023-03-07T00:08:06.996Z,3.60
2023-03-07T00:10:37.890Z,3.60
2023-03-07T00:13:08.831Z,3.60
2023-03-07T00:15:40.498Z,3.60
2023-03-07T00:18:08.569Z,3.70
2023-03-07T00:20:36.690Z,3.70
2023-03-07T00:23:05.283Z,3.70
2023-03-07T00:25:33.374Z,3.70
2023-03-07T00:28:01.399Z,3.80
2023-03-07T00:30:33.205Z,3.80
2023-03-07T00:33:01.294Z,3.80
2023-03-07T00:35:29.416Z,3.80
2023-03-07T00:37:57.548Z,3.90
2023-03-07T00:40:25.634Z,3.90
2023-03-07T00:42:53.913Z,3.90
2023-03-07T00:45:24.375Z,4.00
2023-03-07T00:47:53.972Z,4.00
2023-03-07T00:50:22.142Z,4.00
2023-03-07T00:52:52.786Z,4.00
2023-03-07T00:55:23.238Z,4.00
2023-03-07T00:57:53.397Z,4.00
2023-03-07T01:00:21.925Z,4.00
2023-03-07T01:02:51.713Z,4.00
2023-03-07T01:05:21.160Z,4.10
2023-03-07T01:07:49.305Z,4.10
2023-03-07T01:10:17.946Z,4.10
2023-03-07T01:12:46.055Z,4.10
2023-03-07T01:15:16.606Z,4.10
2023-03-07T01:17:47.067Z,4.10
2023-03-07T01:20:15.107Z,4.10
2023-03-07T01:22:44.599Z,4.20
2023-03-07T01:25:13.233Z,4.20
2023-03-07T01:27:41.951Z,4.20
2023-03-07T01:30:11.584Z,4.20
2023-03-07T01:32:40.151Z,4.20
2023-03-07T01:35:09.124Z,4.20
2023-03-07T01:37:39.340Z,4.20
2023-03-07T01:40:12.457Z,4.20
2023-03-07T01:42:43.919Z,4.20
2023-03-07T01:45:52.431Z,4.30
2023-03-07T01:48:23.945Z,4.20
2023-03-07T01:50:52.394Z,4.20
2023-03-07T01:53:21.558Z,4.30
2023-03-07T01:55:51.653Z,4.30
2023-03-07T01:58:20.685Z,4.30
2023-03-07T02:00:49.525Z,4.40
2023-03-07T02:03:26.250Z,4.40
2023-03-07T02:05:56.733Z,4.30
2023-03-07T02:08:28.690Z,4.30
2023-03-07T02:11:00.608Z,4.30
2023-03-07T02:13:28.792Z,4.30
2023-03-07T02:15:58.860Z,4.30
2023-03-07T02:18:29.498Z,4.30
2023-03-07T02:21:12.274Z,4.30
2023-03-07T02:23:47.943Z,4.30
2023-03-07T02:26:25.460Z,4.30
2023-03-07T02:28:58.474Z,4.30
2023-03-07T02:31:27.644Z,4.30
2023-03-07T02:33:58.166Z,4.30
2023-03-07T02:36:33.015Z,4.30
2023-03-07T02:39:14.067Z,4.20
2023-03-07T02:41:44.983Z,4.20
2023-03-07T02:44:22.925Z,4.10
2023-03-07T02:46:53.616Z,4.20
2023-03-07T02:49:24.991Z,4.20
2023-03-07T02:51:57.682Z,4.20
2023-03-07T02:54:26.108Z,4.20
2023-03-07T02:56:57.194Z,4.20
2023-03-07T02:59:26.760Z,4.20
2023-03-07T03:01:55.422Z,4.10
2023-03-07T03:04:23.674Z,4.10
2023-03-07T03:06:52.050Z,4.20
2023-03-07T03:09:20.121Z,4.20
2023-03-07T03:11:48.293Z,4.20
2023-03-07T03:14:18.729Z,4.20
2023-03-07T03:16:50.658Z,4.20
2023-03-07T03:19:18.751Z,4.30
2023-03-07T03:21:46.864Z,4.30
2023-03-07T03:24:17.982Z,4.30
2023-03-07T03:26:47.615Z,4.30
2023-03-07T03:29:19.526Z,4.30
2023-03-07T03:31:51.452Z,4.40
2023-03-07T03:34:20.183Z,4.30
2023-03-07T03:36:48.709Z,4.40
2023-03-07T03:39:16.927Z,4.40
2023-03-07T03:41:49.527Z,4.40
2023-03-07T03:44:22.752Z,4.40
2023-03-07T03:46:52.567Z,4.40
2023-03-07T03:49:23.077Z,4.40
2023-03-07T03:51:53.271Z,4.40
2023-03-07T03:54:23.808Z,4.40
2023-03-07T03:56:54.984Z,4.40
2023-03-07T03:59:23.308Z,4.50
2023-03-07T04:01:55.323Z,4.50
2023-03-07T04:04:24.191Z,4.50
2023-03-07T04:06:54.620Z,4.50
2023-03-07T04:09:22.721Z,4.50
2023-03-07T04:11:51.135Z,4.50
2023-03-07T04:14:19.237Z,4.50
2023-03-07T04:16:50.004Z,4.40
2023-03-07T04:19:21.170Z,4.40
2023-03-07T04:21:52.633Z,4.40
2023-03-07T04:24:20.765Z,4.40
2023-03-07T04:26:48.987Z,4.40
2023-03-07T04:29:17.228Z,4.30
2023-03-07T04:31:52.043Z,4.40
2023-03-07T04:34:21.616Z,4.40
2023-03-07T04:36:52.214Z,4.30
2023-03-07T04:39:20.396Z,4.30
2023-03-07T04:41:48.555Z,4.30
2023-03-07T04:44:21.104Z,4.30
2023-03-07T04:46:49.234Z,4.30
2023-03-07T04:49:17.935Z,4.30
2023-03-07T04:51:49.808Z,4.30
2023-03-07T04:54:20.936Z,4.30
2023-03-07T04:56:51.706Z,4.30
2023-03-07T04:59:21.366Z,4.20
2023-03-07T05:01:49.919Z,4.20
2023-03-07T05:04:18.251Z,4.20
2023-03-07T05:06:50.073Z,4.20
2023-03-07T05:09:18.418Z,4.20
2023-03-07T05:11:46.768Z,4.20
2023-03-07T05:14:14.979Z,4.20
2023-03-07T05:16:45.130Z,4.20
2023-03-07T05:19:13.821Z,4.10
2023-03-07T05:21:44.117Z,4.10
2023-03-07T05:24:14.110Z,4.10
2023-03-07T05:26:42.647Z,4.10
2023-03-07T05:29:10.824Z,4.10
2023-03-07T05:31:41.334Z,4.10
2023-03-07T05:34:11.798Z,4.10
2023-03-07T05:36:40.852Z,4.10
2023-03-07T05:39:10.005Z,4.10
2023-03-07T05:41:39.542Z,4.10
2023-03-07T05:44:08.094Z,4.10
2023-03-07T05:46:36.625Z,4.10
2023-03-07T05:49:05.780Z,4.10
2023-03-07T05:51:33.880Z,4.10
2023-03-07T05:54:02.004Z,4.10
2023-03-07T05:56:32.268Z,4.10
2023-03-07T05:59:03.912Z,4.10
2023-03-07T06:01:32.201Z,4.10
2023-03-07T06:04:00.683Z,4.10
2023-03-07T06:06:28.938Z,4.00
2023-03-07T06:08:57.299Z,4.00
2023-03-07T06:11:26.020Z,4.00
2023-03-07T06:13:55.809Z,3.90
2023-03-07T06:16:25.532Z,3.90
2023-03-07T06:18:55.133Z,3.80
2023-03-07T06:21:26.139Z,3.80
2023-03-07T06:23:54.327Z,3.70
2023-03-07T06:26:24.131Z,3.70
2023-03-07T06:28:54.687Z,3.60
2023-03-07T06:31:25.706Z,3.60
2023-03-07T06:33:57.512Z,3.60
2023-03-07T06:36:26.524Z,3.60
2023-03-07T06:38:58.426Z,3.50
2023-03-07T06:41:29.813Z,3.50
2023-03-07T06:44:00.407Z,3.40
2023-03-07T06:46:33.088Z,3.40
2023-03-07T06:49:05.328Z,3.40
2023-03-07T06:51:37.916Z,3.40
2023-03-07T06:54:06.934Z,3.30
2023-03-07T06:56:37.478Z,3.30
2023-03-07T06:59:07.959Z,3.30
2023-03-07T07:01:38.619Z,3.20
2023-03-07T07:04:09.145Z,3.20
2023-03-07T07:06:37.310Z,3.20
2023-03-07T07:09:05.956Z,3.20
2023-03-07T07:11:37.442Z,3.20
2023-03-07T07:14:11.051Z,3.10
2023-03-07T07:16:41.661Z,3.10
2023-03-07T07:19:10.407Z,3.10
2023-03-07T07:21:38.839Z,3.10
2023-03-07T07:24:07.329Z,3.10
2023-03-07T07:26:38.279Z,3.10
2023-03-07T07:29:09.601Z,3.10
2023-03-07T07:31:37.877Z,3.00
2023-03-07T07:34:07.718Z,3.00
2023-03-07T07:36:35.955Z,3.00
2023-03-07T07:39:06.008Z,3.00
2023-03-07T07:41:36.289Z,3.00
2023-03-07T07:44:07.183Z,3.00
2023-03-07T07:46:45.398Z,3.10
2023-03-07T07:49:18.720Z,3.00
2023-03-07T07:51:47.083Z,3.10
2023-03-07T07:54:15.726Z,3.10
2023-03-07T07:56:44.078Z,3.10
2023-03-07T07:59:12.511Z,3.10
2023-03-07T08:01:43.398Z,3.10
2023-03-07T08:04:11.520Z,3.10
2023-03-07T08:06:41.065Z,3.00
2023-03-07T08:09:09.278Z,3.00
2023-03-07T08:11:39.920Z,3.00
2023-03-07T08:14:08.289Z,3.00
2023-03-07T08:16:36.420Z,3.00
2023-03-07T08:19:04.809Z,3.10
2023-03-07T08:21:32.926Z,3.10
2023-03-07T08:24:02.510Z,3.10
2023-03-07T08:26:33.174Z,3.10
2023-03-07T08:29:01.287Z,3.10
2023-03-07T08:31:31.735Z,3.10
2023-03-07T08:33:59.959Z,3.10
2023-03-07T08:36:28.179Z,3.00
2023-03-07T08:38:58.332Z,3.00
2023-03-07T08:41:27.868Z,3.00
2023-03-07T08:43:55.986Z,3.00
2023-03-07T08:46:26.459Z,3.00
2023-03-07T08:48:54.757Z,3.00
2023-03-07T08:51:25.020Z,3.00
2023-03-07T08:53:53.182Z,3.00
2023-03-07T08:56:22.067Z,3.00
2023-03-07T08:58:53.723Z,2.90
2023-03-07T09:01:23.905Z,2.90
2023-03-07T09:03:52.015Z,2.90
2023-03-07T09:06:21.731Z,2.80
2023-03-07T09:08:50.450Z,2.80
2023-03-07T09:11:21.656Z,2.80
2023-03-07T09:13:53.069Z,2.80
2023-03-07T09:16:22.441Z,2.70
2023-03-07T09:18:50.848Z,2.70
2023-03-07T09:21:18.978Z,2.60
2023-03-07T09:23:47.240Z,2.60
2023-03-07T09:26:15.646Z,2.50
2023-03-07T09:28:44.161Z,2.60
2023-03-07T09:31:17.445Z,2.60
2023-03-07T09:33:46.915Z,2.50
2023-03-07T09:36:17.975Z,2.50
2023-03-07T09:38:49.079Z,2.40
2023-03-07T09:41:50.119Z,2.50
2023-03-07T09:44:31.904Z,2.40
2023-03-07T09:47:55.018Z,2.40
2023-03-07T09:50:35.803Z,2.50
2023-03-07T09:53:05.457Z,2.40
2023-03-07T09:55:33.920Z,2.40
2023-03-07T09:58:07.714Z,2.50
2023-03-07T10:00:40.351Z,2.50
2023-03-07T10:03:23.334Z,2.60
2023-03-07T10:05:53.362Z,2.60
2023-03-07T10:08:30.578Z,2.70
2023-03-07T10:11:07.937Z,2.70
2023-03-07T10:13:53.286Z,2.80
2023-03-07T10:16:28.049Z,2.90
2023-03-07T10:19:10.619Z,3.00
2023-03-07T10:21:45.616Z,3.00
2023-03-07T10:24:30.950Z,3.10
2023-03-07T10:27:04.281Z,3.10
2023-03-07T10:29:40.073Z,3.20
2023-03-07T10:32:30.772Z,3.30
2023-03-07T10:35:08.220Z,3.30
2023-03-07T10:37:46.482Z,3.40
2023-03-07T10:40:24.844Z,3.40
2023-03-07T10:42:56.458Z,3.50
2023-03-07T10:45:24.748Z,3.50
2023-03-07T10:47:52.875Z,3.50
2023-03-07T10:50:36.289Z,3.60
2023-03-07T10:53:10.227Z,3.70
2023-03-07T10:55:41.038Z,3.70
2023-03-07T10:58:20.862Z,3.70
2023-03-07T11:01:00.615Z,3.70
2023-03-07T11:03:49.724Z,3.70
2023-03-07T11:06:36.876Z,3.80
2023-03-07T11:09:16.804Z,3.80
2023-03-07T11:11:50.347Z,3.80
2023-03-07T11:14:19.143Z,3.80
2023-03-07T11:16:51.801Z,3.80
2023-03-07T11:19:33.482Z,3.80
2023-03-07T11:22:06.479Z,3.80
2023-03-07T11:24:40.128Z,3.90
2023-03-07T11:27:21.085Z,3.90
2023-03-07T11:30:25.182Z,3.90
2023-03-07T11:33:03.592Z,4.00
2023-03-07T11:35:47.444Z,4.10
2023-03-07T11:38:29.873Z,4.10
2023-03-07T11:41:04.072Z,4.20
2023-03-07T11:44:01.057Z,4.20
2023-03-07T11:46:43.413Z,4.20
2023-03-07T11:49:25.762Z,4.30
2023-03-07T11:52:04.951Z,4.30
2023-03-07T11:54:47.661Z,4.30
2023-03-07T11:57:25.375Z,4.30
2023-03-07T12:00:19.274Z,4.30
2023-03-07T12:03:11.571Z,4.40
2023-03-07T12:05:51.191Z,4.40
2023-03-07T12:08:43.748Z,4.40
2023-03-07T12:11:26.883Z,4.40
2023-03-07T12:14:04.375Z,4.40
2023-03-07T12:16:43.239Z,4.30
2023-03-07T12:19:33.411Z,4.30
2023-03-07T12:22:27.998Z,4.30
2023-03-07T12:25:19.932Z,4.30
2023-03-07T12:28:03.108Z,4.30
2023-03-07T12:30:41.882Z,4.30
2023-03-07T12:33:18.746Z,4.40
2023-03-07T12:35:52.928Z,4.40
2023-03-07T12:38:36.153Z,4.40
2023-03-07T12:41:15.098Z,4.40
2023-03-07T12:43:51.384Z,4.50
2023-03-07T12:46:25.645Z,4.50
2023-03-07T12:49:01.684Z,4.60
2023-03-07T12:51:38.098Z,4.60
2023-03-07T12:54:12.908Z,4.60
2023-03-07T12:56:50.418Z,4.70
2023-03-07T12:59:21.746Z,4.70
2023-03-07T13:01:55.259Z,4.70
2023-03-07T13:04:31.997Z,4.70
2023-03-07T13:07:08.628Z,4.80
2023-03-07T13:09:42.605Z,4.80
2023-03-07T13:12:27.091Z,4.80
2023-03-07T13:14:58.601Z,4.90
2023-03-07T13:18:01.385Z,4.90
2023-03-07T13:20:41.522Z,4.90
2023-03-07T13:23:32.349Z,5.00
2023-03-07T13:26:10.616Z,5.00
2023-03-07T13:28:53.021Z,4.90
2023-03-07T13:31:49.983Z,5.00
2023-03-07T13:34:48.864Z,5.00
2023-03-07T13:37:53.814Z,4.80
2023-03-07T13:40:52.889Z,4.70
2023-03-07T13:43:54.683Z,4.50
2023-03-07T13:46:51.841Z,4.30
2023-03-07T13:49:45.650Z,4.20
2023-03-07T13:52:45.254Z,4.10
2023-03-07T13:55:33.878Z,4.00
2023-03-07T13:58:16.266Z,3.90
2023-03-07T14:00:55.327Z,3.80
2023-03-07T14:03:36.167Z,3.70
2023-03-07T14:06:10.389Z,3.70
2023-03-07T14:08:43.428Z,3.60
2023-03-07T14:11:22.954Z,3.60
2023-03-07T14:14:15.786Z,3.50
2023-03-07T14:16:57.070Z,3.40
2023-03-07T14:19:48.564Z,3.40
2023-03-07T14:22:27.917Z,3.30
2023-03-07T14:25:17.732Z,3.20
2023-03-07T14:27:57.578Z,3.20
2023-03-07T14:30:27.897Z,3.10
2023-03-07T14:32:59.186Z,3.10
2023-03-07T14:35:45.939Z,3.00
2023-03-07T14:38:21.559Z,3.00
2023-03-07T14:41:14.522Z,3.00
2023-03-07T14:43:54.636Z,3.00
2023-03-07T14:46:36.072Z,2.90
2023-03-07T14:49:12.091Z,3.00
2023-03-07T14:51:45.222Z,3.00
2023-03-07T14:54:17.329Z,3.00
2023-03-07T14:56:52.655Z,3.10
2023-03-07T14:59:28.541Z,3.10
2023-03-07T15:02:00.096Z,3.10
2023-03-07T15:04:32.777Z,3.10
2023-03-07T15:07:03.817Z,3.20
2023-03-07T15:09:33.611Z,3.20
2023-03-07T15:12:12.710Z,3.20
2023-03-07T15:14:47.555Z,3.20
2023-03-07T15:17:20.382Z,3.20
2023-03-07T15:19:51.084Z,3.20
2023-03-07T15:22:24.798Z,3.20
2023-03-07T15:24:55.927Z,3.30
2023-03-07T15:27:27.751Z,3.30
2023-03-07T15:29:57.003Z,3.30
2023-03-07T15:32:35.158Z,3.40
2023-03-07T15:35:13.695Z,3.40
2023-03-07T15:37:54.408Z,3.40
2023-03-07T15:40:32.126Z,3.40
2023-03-07T15:43:17.468Z,3.50
2023-03-07T15:45:58.256Z,3.50
2023-03-07T15:48:37.410Z,3.50
2023-03-07T15:51:08.408Z,3.60
2023-03-07T15:53:39.013Z,3.60
2023-03-07T15:56:23.497Z,3.60
2023-03-07T15:58:56.474Z,3.60
2023-03-07T16:01:26.869Z,3.70
2023-03-07T16:03:57.193Z,3.70
2023-03-07T16:06:41.594Z,3.70
2023-03-07T16:09:13.809Z,3.70
2023-03-07T16:11:45.789Z,3.60
2023-03-07T16:14:22.567Z,3.60
2023-03-07T16:16:53.078Z,3.60
2023-03-07T16:19:21.407Z,3.60
2023-03-07T16:21:49.547Z,3.60
2023-03-07T16:24:19.884Z,3.50
2023-03-07T16:26:50.690Z,3.40
2023-03-07T16:29:23.901Z,3.40
2023-03-07T16:31:52.096Z,3.40
2023-03-07T16:34:22.788Z,3.30
2023-03-07T16:36:50.929Z,3.30
2023-03-07T16:39:21.720Z,3.30
2023-03-07T16:41:52.256Z,3.30
2023-03-07T16:44:23.675Z,3.20
2023-03-07T16:46:57.002Z,3.20
2023-03-07T16:49:25.162Z,3.10
2023-03-07T16:52:05.203Z,3.10
2023-03-07T16:54:34.672Z,3.10
2023-03-07T16:57:06.951Z,3.10
2023-03-07T16:59:39.654Z,3.00
2023-03-07T17:02:14.347Z,3.00
2023-03-07T17:04:44.238Z,2.90
2023-03-07T17:07:18.213Z,2.90
2023-03-07T17:09:50.056Z,2.90
2023-03-07T17:12:23.699Z,2.90
2023-03-07T17:14:57.471Z,2.80
2023-03-07T17:17:33.108Z,2.80
2023-03-07T17:20:01.444Z,2.80
2023-03-07T17:22:32.139Z,2.70
2023-03-07T17:25:01.046Z,2.70
2023-03-07T17:27:31.734Z,2.60
2023-03-07T17:30:03.529Z,2.60
2023-03-07T17:32:31.693Z,2.50
2023-03-07T17:35:03.361Z,2.50
2023-03-07T17:37:31.548Z,2.40
2023-03-07T17:40:00.551Z,2.30
2023-03-07T17:42:28.659Z,2.30
2023-03-07T17:44:56.811Z,2.30
2023-03-07T17:47:28.593Z,2.20
2023-03-07T17:49:57.648Z,2.20
2023-03-07T17:52:25.882Z,2.20
2023-03-07T17:54:56.293Z,2.20
2023-03-07T17:57:27.427Z,2.20
2023-03-07T17:59:56.292Z,2.20
2023-03-07T18:02:24.654Z,2.20
2023-03-07T18:04:54.183Z,2.20
2023-03-07T18:07:24.866Z,2.10
2023-03-07T18:10:05.821Z,2.10
2023-03-07T18:12:38.986Z,2.10
2023-03-07T18:15:09.276Z,2.10
2023-03-07T18:17:47.219Z,2.00
2023-03-07T18:20:21.838Z,2.00
2023-03-07T18:22:50.320Z,2.00
2023-03-07T18:25:19.770Z,2.10
2023-03-07T18:27:48.302Z,2.00
2023-03-07T18:30:17.057Z,2.00
2023-03-07T18:32:47.799Z,2.00
2023-03-07T18:35:16.686Z,2.00
2023-03-07T18:37:46.253Z,2.10
2023-03-07T18:40:14.872Z,2.10
2023-03-07T18:42:45.348Z,2.10
2023-03-07T18:45:13.855Z,2.20
2023-03-07T18:47:44.885Z,2.10
2023-03-07T18:50:13.306Z,2.10
2023-03-07T18:52:45.236Z,2.10
2023-03-07T18:55:13.342Z,2.10
2023-03-07T18:57:41.535Z,2.10
2023-03-07T19:00:11.479Z,2.10
2023-03-07T19:02:39.962Z,2.10
2023-03-07T19:05:09.151Z,2.10
2023-03-07T19:07:37.428Z,2.10
2023-03-07T19:10:08.040Z,2.10
2023-03-07T19:12:36.346Z,2.10
2023-03-07T19:15:04.960Z,2.10
2023-03-07T19:17:33.152Z,2.10
2023-03-07T19:20:01.268Z,2.10
2023-03-07T19:22:30.498Z,2.10
2023-03-07T19:24:59.589Z,2.10
2023-03-07T19:27:31.989Z,2.10
2023-03-07T19:30:02.520Z,2.10
2023-03-07T19:32:31.044Z,2.10
2023-03-07T19:34:59.315Z,2.10
2023-03-07T19:37:27.448Z,2.10
2023-03-07T19:39:58.060Z,2.10
2023-03-07T19:42:26.238Z,2.10
2023-03-07T19:44:58.061Z,2.00
2023-03-07T19:47:26.173Z,2.00
2023-03-07T19:49:54.302Z,2.00
2023-03-07T19:52:22.419Z,2.00
2023-03-07T19:54:53.885Z,2.00
2023-03-07T19:57:24.147Z,2.00
2023-03-07T19:59:56.407Z,2.00
2023-03-07T20:02:29.384Z,2.00
2023-03-07T20:04:58.890Z,2.00
2023-03-07T20:07:27.343Z,2.00
2023-03-07T20:09:58.378Z,1.90
2023-03-07T20:12:26.733Z,1.90
2023-03-07T20:14:54.882Z,2.00
2023-03-07T20:17:23.101Z,1.90
2023-03-07T20:19:55.792Z,1.90
2023-03-07T20:22:28.334Z,2.00
2023-03-07T20:24:59.458Z,1.90
2023-03-07T20:27:27.673Z,1.90
2023-03-07T20:29:58.105Z,1.90
2023-03-07T20:32:26.480Z,1.90
2023-03-07T20:35:03.461Z,2.00
2023-03-07T20:37:34.432Z,1.90
2023-03-07T20:40:06.301Z,1.90
2023-03-07T20:42:36.847Z,2.00
2023-03-07T20:45:05.713Z,1.90
2023-03-07T20:47:38.401Z,1.90
2023-03-07T20:50:08.768Z,1.90
2023-03-07T20:52:39.173Z,1.90
2023-03-07T20:55:10.392Z,1.90
2023-03-07T20:57:38.553Z,1.90
2023-03-07T21:00:08.393Z,1.90
2023-03-07T21:02:39.663Z,1.90
2023-03-07T21:05:09.946Z,1.90
2023-03-07T21:07:40.391Z,1.90
2023-03-07T21:10:09.054Z,1.90
2023-03-07T21:12:37.307Z,1.90
2023-03-07T21:15:06.355Z,1.90
2023-03-07T21:17:35.505Z,1.90
2023-03-07T21:20:06.691Z,1.90
2023-03-07T21:22:36.238Z,1.90
2023-03-07T21:25:07.476Z,1.90
2023-03-07T21:27:35.594Z,1.90
2023-03-07T21:30:07.249Z,1.90
2023-03-07T21:32:35.568Z,1.80
2023-03-07T21:35:04.190Z,1.90
2023-03-07T21:37:37.540Z,1.90
2023-03-07T21:40:06.806Z,1.90
2023-03-07T21:42:34.905Z,1.80
2023-03-07T21:45:03.080Z,1.90
2023-03-07T21:47:33.521Z,1.80
2023-03-07T21:50:01.638Z,1.80
2023-03-07T21:52:29.856Z,1.80
2023-03-07T21:55:02.005Z,1.80
2023-03-07T21:57:30.168Z,1.80
2023-03-07T21:59:58.329Z,1.80
2023-03-07T22:02:28.715Z,1.80
2023-03-07T22:04:56.957Z,1.70
2023-03-07T22:07:27.716Z,1.70
2023-03-07T22:09:55.817Z,1.70
2023-03-07T22:12:27.723Z,1.70
2023-03-07T22:14:58.426Z,1.60
2023-03-07T22:17:28.883Z,1.60
2023-03-07T22:19:57.033Z,1.60
2023-03-07T22:22:27.563Z,1.60
2023-03-07T22:24:55.696Z,1.50
2023-03-07T22:27:23.852Z,1.50
2023-03-07T22:29:55.584Z,1.50
2023-03-07T22:32:23.785Z,1.50
2023-03-07T22:34:51.936Z,1.50
2023-03-07T22:37:20.260Z,1.50
2023-03-07T22:39:48.373Z,1.50
2023-03-07T22:42:19.121Z,1.50
2023-03-07T22:44:49.250Z,1.50
2023-03-07T22:47:18.903Z,1.50
2023-03-07T22:49:49.321Z,1.50
2023-03-07T22:52:19.586Z,1.50
2023-03-07T22:54:50.078Z,1.50
2023-03-07T22:57:18.206Z,1.50
2023-03-07T22:59:48.152Z,1.50
2023-03-07T23:02:16.337Z,1.50
2023-03-07T23:04:48.230Z,1.50
2023-03-07T23:07:17.231Z,1.50
2023-03-07T23:09:45.532Z,1.50
2023-03-07T23:12:15.958Z,1.50
2023-03-07T23:14:44.552Z,1.50
2023-03-07T23:17:12.687Z,1.40
2023-03-07T23:19:43.443Z,1.40
2023-03-07T23:22:15.806Z,1.50
2023-03-07T23:24:44.116Z,1.40
2023-03-07T23:27:12.310Z,1.40
2023-03-07T23:29:42.938Z,1.50
2023-03-07T23:32:13.082Z,1.50
2023-03-07T23:34:41.280Z,1.50
2023-03-07T23:37:09.416Z,1.40
2023-03-07T23:39:39.010Z,1.40
2023-03-07T23:42:07.309Z,1.30
2023-03-07T23:44:35.833Z,1.30
2023-03-07T23:47:04.324Z,1.30
2023-03-07T23:49:32.842Z,1.20
2023-03-07T23:52:00.924Z,1.20
2023-03-07T23:54:31.377Z,1.20
2023-03-07T23:57:00.875Z,1.20
2023-03-07T23:59:28.980Z,1.20
